Arlington, Maryland
Current Conditions -  °F | °C
As of 7:54 PM on Thursday 18 Dec 2014 (Local Time) from KBWI Reporting Station
Overcast Overcast  
Wind Chill: -1°   Ceiling: 15000
Heat Index:   Visibility: 10mi
Dew Point: -5°   Wind: 5mph
Humidity: 64%   Direction: 290°WNW
Pressure: 30.1"   Gusts: NA
Location:  39.3453°N, 76.6832°W
Report Text: KBWI 190054Z 29004KT 10SM FEW037 OVC150 01/M05 A3010 RMK AO2 SLP194 T00111050
Loading
Personal Weather Stations






























Interactive Weather Map New forecast layout! Learn more

10-Day Weather Forecast

Advertisements
Track Severe Weather on mobile